createdAt,value
2018-09-13T00:00:58.905Z,95.40
2018-09-13T00:03:40.263Z,95.30
2018-09-13T00:06:22.499Z,95.70
2018-09-13T00:09:03.774Z,96.00
2018-09-13T00:11:45.239Z,96.30
2018-09-13T00:14:26.887Z,96.60
2018-09-13T00:17:08.568Z,96.80
2018-09-13T00:19:49.441Z,97.20
2018-09-13T00:22:30.939Z,97.00
2018-09-13T00:25:12.651Z,97.30
2018-09-13T00:27:54.789Z,97.50
2018-09-13T00:30:36.124Z,97.90
2018-09-13T00:33:17.744Z,98.10
2018-09-13T00:35:59.612Z,98.30
2018-09-13T00:38:41.236Z,98.30
2018-09-13T00:41:23.129Z,98.20
2018-09-13T00:44:04.825Z,98.10
2018-09-13T00:46:46.487Z,97.90
2018-09-13T00:49:28.208Z,97.70
2018-09-13T00:52:09.909Z,97.80
2018-09-13T00:54:51.778Z,97.80
2018-09-13T00:57:33.485Z,97.80
2018-09-13T01:00:15.303Z,97.80
2018-09-13T01:02:57.146Z,97.80
2018-09-13T01:05:39.452Z,97.70
2018-09-13T01:08:20.749Z,97.70
2018-09-13T01:11:02.362Z,97.90
2018-09-13T01:13:44.021Z,98.10
2018-09-13T01:16:25.802Z,98.10
2018-09-13T01:19:07.667Z,98.00
2018-09-13T01:21:49.265Z,98.00
2018-09-13T01:24:30.998Z,97.90
2018-09-13T01:27:12.613Z,97.90
2018-09-13T01:30:00.458Z,97.30
2018-09-13T01:32:41.875Z,96.90
2018-09-13T01:35:23.585Z,96.70
2018-09-13T01:38:06.253Z,96.30
2018-09-13T01:40:47.966Z,96.50
2018-09-13T01:43:32.903Z,96.20
2018-09-13T01:46:15.495Z,96.30
2018-09-13T01:48:57.227Z,96.40
2018-09-13T01:51:38.977Z,96.30
2018-09-13T01:54:20.856Z,96.20
2018-09-13T01:57:02.473Z,96.50
2018-09-13T01:59:44.217Z,96.70
2018-09-13T02:02:25.126Z,97.00
2018-09-13T02:05:06.773Z,97.80
2018-09-13T02:07:47.777Z,97.50
2018-09-13T02:10:29.800Z,97.60
2018-09-13T02:13:10.978Z,98.30
2018-09-13T02:15:52.607Z,98.50
2018-09-13T02:18:34.239Z,99.00
2018-09-13T02:21:16.261Z,99.20
2018-09-13T02:23:58.777Z,99.30
2018-09-13T02:26:40.452Z,99.70
2018-09-13T02:29:22.161Z,99.70
2018-09-13T02:32:06.258Z,99.90
2018-09-13T02:34:47.547Z,99.90
2018-09-13T02:37:29.218Z,99.90
2018-09-13T02:40:10.986Z,99.90
2018-09-13T02:42:55.099Z,99.90
2018-09-13T02:45:37.266Z,99.90
2018-09-13T02:48:18.102Z,99.90
2018-09-13T02:51:01.941Z,99.90
2018-09-13T02:53:44.040Z,99.90
2018-09-13T02:56:25.398Z,99.90
2018-09-13T02:59:08.068Z,99.90
2018-09-13T03:01:59.114Z,99.90
2018-09-13T03:04:40.905Z,99.90
2018-09-13T03:07:21.820Z,99.90
2018-09-13T03:10:03.653Z,99.90
2018-09-13T03:12:45.096Z,99.90
2018-09-13T03:15:26.738Z,99.90
2018-09-13T03:18:08.504Z,99.90
2018-09-13T03:20:49.966Z,99.90
2018-09-13T03:23:31.302Z,99.80
2018-09-13T03:26:12.716Z,99.50
2018-09-13T03:28:54.654Z,99.70
2018-09-13T03:31:36.120Z,99.80
2018-09-13T03:34:17.630Z,99.80
2018-09-13T03:36:59.462Z,99.80
2018-09-13T03:39:41.905Z,99.80
2018-09-13T03:42:25.671Z,99.90
2018-09-13T03:45:07.644Z,99.90
2018-09-13T03:47:49.109Z,99.90
2018-09-13T03:50:30.834Z,99.90
2018-09-13T03:53:12.545Z,99.90
2018-09-13T03:55:54.094Z,99.90
2018-09-13T03:58:35.697Z,99.90
2018-09-13T04:01:17.405Z,99.90
2018-09-13T04:03:59.026Z,99.90
2018-09-13T04:06:40.599Z,99.90
2018-09-13T04:09:22.817Z,99.90
2018-09-13T04:12:04.492Z,99.90
2018-09-13T04:14:46.210Z,99.90
2018-09-13T04:17:28.110Z,99.90
2018-09-13T04:20:10.518Z,99.90
2018-09-13T04:22:51.658Z,99.90
2018-09-13T04:25:33.392Z,99.90
2018-09-13T04:28:15.049Z,99.90
2018-09-13T04:30:56.663Z,99.90
2018-09-13T04:33:38.366Z,99.90
2018-09-13T04:36:20.008Z,99.90
2018-09-13T04:39:02.573Z,99.90
2018-09-13T04:41:44.353Z,99.90
2018-09-13T04:44:26.437Z,99.90
2018-09-13T04:47:07.649Z,99.90
2018-09-13T04:49:49.596Z,99.90
2018-09-13T04:52:31.296Z,99.90
2018-09-13T04:55:12.940Z,99.90
2018-09-13T04:57:54.410Z,99.90
2018-09-13T05:00:40.223Z,99.90
2018-09-13T05:03:21.600Z,99.90
2018-09-13T05:06:04.403Z,99.90
2018-09-13T05:08:45.904Z,99.90
2018-09-13T05:11:27.747Z,99.90
2018-09-13T05:14:09.363Z,99.90
2018-09-13T05:16:50.320Z,99.90
2018-09-13T05:19:32.044Z,99.90
2018-09-13T05:22:13.618Z,99.90
2018-09-13T05:24:56.273Z,99.90
2018-09-13T05:27:37.155Z,99.90
2018-09-13T05:30:18.834Z,99.90
2018-09-13T05:32:59.885Z,99.90
2018-09-13T05:35:41.643Z,99.90
2018-09-13T05:38:23.411Z,99.90
2018-09-13T05:41:04.815Z,99.90
2018-09-13T05:43:46.039Z,99.90
2018-09-13T05:46:27.837Z,99.90
2018-09-13T05:49:09.591Z,99.90
2018-09-13T05:51:50.443Z,99.90
2018-09-13T05:54:32.113Z,99.90
2018-09-13T05:57:12.923Z,99.90
2018-09-13T05:59:54.409Z,99.90
2018-09-13T06:02:36.233Z,99.90
2018-09-13T06:05:17.953Z,99.90
2018-09-13T06:07:59.662Z,99.90
2018-09-13T06:10:41.618Z,99.90
2018-09-13T06:13:22.943Z,99.90
2018-09-13T06:16:04.560Z,99.90
2018-09-13T06:18:46.097Z,99.90
2018-09-13T06:21:28.053Z,99.90
2018-09-13T06:24:09.715Z,99.90
2018-09-13T06:26:51.430Z,99.90
2018-09-13T06:29:35.462Z,99.90
2018-09-13T06:32:16.850Z,99.90
2018-09-13T06:34:58.519Z,99.90
2018-09-13T06:37:40.530Z,99.90
2018-09-13T06:40:22.197Z,99.90
2018-09-13T06:43:03.951Z,99.90
2018-09-13T06:45:45.150Z,99.90
2018-09-13T06:48:26.899Z,99.90
2018-09-13T06:51:08.616Z,99.90
2018-09-13T06:53:50.098Z,99.90
2018-09-13T06:56:31.954Z,99.90
2018-09-13T06:59:14.022Z,99.90
2018-09-13T07:01:56.170Z,99.90
2018-09-13T07:04:37.921Z,99.90
2018-09-13T07:07:19.809Z,99.90
2018-09-13T07:10:01.681Z,99.90
2018-09-13T07:12:42.930Z,99.90
2018-09-13T07:15:24.742Z,99.90
2018-09-13T07:18:07.084Z,99.90
2018-09-13T07:20:48.325Z,99.90
2018-09-13T07:23:29.825Z,99.80
2018-09-13T07:26:11.569Z,99.80
2018-09-13T07:28:54.069Z,99.10
2018-09-13T07:31:35.900Z,98.20
2018-09-13T07:34:17.418Z,98.30
2018-09-13T07:37:00.329Z,98.30
2018-09-13T07:39:41.299Z,97.80
2018-09-13T07:42:22.898Z,97.30
2018-09-13T07:45:04.490Z,97.10
2018-09-13T07:47:46.195Z,95.90
2018-09-13T07:50:27.878Z,96.40
2018-09-13T07:53:09.534Z,95.90
2018-09-13T07:55:51.356Z,95.70
2018-09-13T07:58:32.243Z,95.40
2018-09-13T08:01:13.919Z,94.80
2018-09-13T08:03:55.599Z,94.80
2018-09-13T08:06:37.484Z,94.60
2018-09-13T08:09:19.190Z,94.80
2018-09-13T08:12:00.101Z,94.80
2018-09-13T08:14:41.729Z,94.10
2018-09-13T08:17:24.456Z,93.60
2018-09-13T08:20:06.154Z,93.00
2018-09-13T08:22:47.960Z,91.90
2018-09-13T08:25:29.693Z,91.00
2018-09-13T08:28:11.315Z,91.40
2018-09-13T08:30:52.932Z,90.50
2018-09-13T08:33:34.697Z,87.30
2018-09-13T08:36:16.322Z,83.50
2018-09-13T08:38:57.251Z,81.00
2018-09-13T08:41:38.857Z,79.80
2018-09-13T08:44:20.672Z,78.20
2018-09-13T08:47:02.434Z,77.20
2018-09-13T08:49:44.230Z,77.40
2018-09-13T08:52:25.933Z,75.80
2018-09-13T08:55:09.853Z,75.80
2018-09-13T08:57:51.538Z,75.40
2018-09-13T09:00:33.303Z,73.70
2018-09-13T09:03:15.286Z,72.90
2018-09-13T09:05:56.958Z,73.10
2018-09-13T09:08:38.840Z,73.70
2018-09-13T09:11:20.789Z,72.40
2018-09-13T09:14:01.983Z,72.70
2018-09-13T09:16:42.858Z,72.30
2018-09-13T09:19:24.157Z,71.80
2018-09-13T09:22:05.374Z,71.60
2018-09-13T09:24:47.050Z,72.80
2018-09-13T09:27:29.017Z,72.40
2018-09-13T09:30:10.636Z,75.80
2018-09-13T09:32:52.234Z,77.20
2018-09-13T09:35:33.007Z,78.00
2018-09-13T09:38:14.795Z,79.70
2018-09-13T09:40:56.450Z,80.80
2018-09-13T09:43:38.007Z,83.10
2018-09-13T09:46:19.676Z,82.40
2018-09-13T09:49:01.438Z,82.40
2018-09-13T09:51:43.139Z,83.10
2018-09-13T09:54:24.820Z,83.50
2018-09-13T09:57:06.580Z,84.00
2018-09-13T09:59:48.231Z,84.00
2018-09-13T10:02:29.797Z,84.50
2018-09-13T10:05:11.452Z,84.90
2018-09-13T10:07:52.266Z,84.90
2018-09-13T10:10:33.012Z,86.90
2018-09-13T10:13:14.692Z,86.80
2018-09-13T10:16:01.647Z,87.10
2018-09-13T10:18:44.522Z,88.40
2018-09-13T10:21:30.960Z,88.60
2018-09-13T10:24:17.501Z,87.20
2018-09-13T10:27:04.359Z,86.40
2018-09-13T10:29:51.291Z,87.10
2018-09-13T10:32:37.684Z,87.80
2018-09-13T10:36:23.723Z,87.50
2018-09-13T10:39:10.576Z,85.80
2018-09-13T10:41:56.736Z,85.10
2018-09-13T10:44:44.552Z,84.60
2018-09-13T10:47:31.247Z,84.40
2018-09-13T10:50:33.051Z,85.00
2018-09-13T10:54:21.409Z,85.10
2018-09-13T10:57:08.175Z,85.20
2018-09-13T10:59:49.994Z,84.60
2018-09-13T11:02:30.762Z,83.90
2018-09-13T11:05:12.503Z,85.90
2018-09-13T11:07:55.044Z,86.10
2018-09-13T11:10:38.335Z,85.80
2018-09-13T11:13:23.512Z,84.50
2018-09-13T11:16:05.089Z,86.20
2018-09-13T11:19:00.907Z,87.30
2018-09-13T11:21:42.061Z,87.30
2018-09-13T11:24:23.852Z,88.40
2018-09-13T11:27:05.889Z,87.80
2018-09-13T11:29:47.143Z,87.80
2018-09-13T11:32:28.743Z,87.20
2018-09-13T11:35:10.535Z,87.10
2018-09-13T11:37:52.195Z,85.80
2018-09-13T11:40:34.135Z,85.20
2018-09-13T11:43:15.777Z,85.80
2018-09-13T11:45:56.498Z,86.00
2018-09-13T11:48:38.073Z,86.10
2018-09-13T11:51:19.929Z,85.90
2018-09-13T11:54:01.611Z,86.40
2018-09-13T11:56:43.295Z,87.00
2018-09-13T11:59:25.056Z,87.10
2018-09-13T12:02:06.870Z,86.60
2018-09-13T12:04:48.407Z,87.40
2018-09-13T12:07:30.123Z,88.40
2018-09-13T12:10:11.800Z,88.50
2018-09-13T12:12:52.646Z,87.20
2018-09-13T12:15:33.570Z,85.60
2018-09-13T12:18:15.280Z,84.80
2018-09-13T12:20:57.330Z,85.10
2018-09-13T12:23:38.538Z,85.50
2018-09-13T12:26:21.073Z,86.10
2018-09-13T12:29:02.721Z,86.40
2018-09-13T12:31:43.886Z,85.80
2018-09-13T12:34:24.861Z,85.10
2018-09-13T12:37:06.414Z,86.00
2018-09-13T12:39:47.221Z,84.60
2018-09-13T12:42:28.854Z,85.20
2018-09-13T12:45:11.052Z,84.80
2018-09-13T12:47:52.443Z,84.70
2018-09-13T12:50:33.762Z,84.70
2018-09-13T12:53:15.213Z,84.30
2018-09-13T12:55:57.209Z,84.10
2018-09-13T12:58:38.837Z,85.60
2018-09-13T13:01:27.310Z,86.20
2018-09-13T13:04:08.286Z,85.50
2018-09-13T13:06:50.042Z,85.70
2018-09-13T13:09:31.515Z,87.50
2018-09-13T13:12:13.162Z,86.20
2018-09-13T13:14:54.785Z,87.00
2018-09-13T13:17:36.533Z,88.70
2018-09-13T13:20:18.207Z,87.30
2018-09-13T13:22:59.945Z,86.90
2018-09-13T13:25:41.524Z,87.10
2018-09-13T13:28:23.099Z,89.30
2018-09-13T13:31:04.837Z,90.10
2018-09-13T13:33:45.760Z,89.80
2018-09-13T13:36:27.544Z,90.00
2018-09-13T13:39:09.875Z,89.80
2018-09-13T13:41:50.814Z,90.70
2018-09-13T13:44:32.585Z,90.00
2018-09-13T13:47:14.422Z,88.80
2018-09-13T13:49:57.019Z,89.00
2018-09-13T13:52:38.785Z,88.00
2018-09-13T13:55:20.656Z,87.20
2018-09-13T13:58:02.234Z,87.70
2018-09-13T14:00:43.953Z,87.40
2018-09-13T14:03:25.601Z,86.60
2018-09-13T14:06:07.304Z,87.60
2018-09-13T14:08:48.925Z,88.40
2018-09-13T14:11:30.950Z,88.10
2018-09-13T14:14:12.096Z,89.80
2018-09-13T14:16:53.770Z,89.10
2018-09-13T14:19:36.490Z,89.10
2018-09-13T14:22:17.433Z,88.10
2018-09-13T14:24:59.521Z,88.00
2018-09-13T14:27:41.464Z,87.20
2018-09-13T14:30:23.240Z,85.90
2018-09-13T14:33:05.537Z,86.70
2018-09-13T14:35:47.295Z,86.10
2018-09-13T14:38:28.824Z,85.80
2018-09-13T14:41:10.641Z,85.10
2018-09-13T14:43:52.220Z,86.00
2018-09-13T14:46:34.159Z,84.10
2018-09-13T14:49:15.642Z,85.00
2018-09-13T14:51:56.598Z,85.40
2018-09-13T14:54:38.038Z,86.80
2018-09-13T14:57:19.839Z,86.40
2018-09-13T15:00:01.421Z,86.40
2018-09-13T15:02:43.035Z,86.20
2018-09-13T15:05:23.789Z,87.30
2018-09-13T15:08:05.905Z,88.10
2018-09-13T15:10:47.757Z,89.70
2018-09-13T15:13:29.648Z,89.00
2018-09-13T15:16:11.423Z,89.70
2018-09-13T15:18:52.386Z,90.40
2018-09-13T15:21:34.102Z,90.00
2018-09-13T15:24:15.696Z,90.10
2018-09-13T15:26:57.524Z,90.50
2018-09-13T15:29:39.117Z,90.60
2018-09-13T15:32:20.826Z,90.90
2018-09-13T15:35:02.583Z,91.30
2018-09-13T15:37:44.448Z,91.70
2018-09-13T15:40:26.476Z,91.50
2018-09-13T15:43:07.850Z,92.30
2018-09-13T15:45:49.486Z,92.10
2018-09-13T15:48:31.101Z,92.30
2018-09-13T15:51:12.705Z,92.60
2018-09-13T15:53:54.401Z,92.90
2018-09-13T15:56:36.021Z,93.10
2018-09-13T15:59:18.067Z,93.40
2018-09-13T16:01:59.958Z,93.40
2018-09-13T16:04:41.629Z,93.60
2018-09-13T16:07:23.220Z,93.50
2018-09-13T16:10:04.926Z,93.40
2018-09-13T16:12:46.838Z,93.40
2018-09-13T16:15:28.653Z,93.50
2018-09-13T16:18:10.283Z,93.40
2018-09-13T16:20:51.168Z,93.80
2018-09-13T16:23:33.114Z,93.50
2018-09-13T16:26:15.472Z,94.00
2018-09-13T16:28:56.476Z,94.20
2018-09-13T16:31:37.545Z,94.40
2018-09-13T16:34:19.187Z,94.80
2018-09-13T16:37:01.163Z,94.90
2018-09-13T16:39:47.573Z,95.10
2018-09-13T16:42:34.615Z,95.70
2018-09-13T16:45:15.999Z,95.80
2018-09-13T16:48:00.802Z,95.60
2018-09-13T16:50:42.317Z,95.30
2018-09-13T16:53:24.017Z,95.50
2018-09-13T16:56:05.917Z,95.60
2018-09-13T16:58:47.385Z,95.10
2018-09-13T17:01:30.087Z,95.20
2018-09-13T17:04:11.859Z,95.20
2018-09-13T17:06:53.701Z,95.10
2018-09-13T17:09:34.948Z,95.50
2018-09-13T17:12:16.663Z,94.90
2018-09-13T17:14:58.564Z,94.80
2018-09-13T17:17:40.222Z,95.00
2018-09-13T17:20:21.812Z,94.90
2018-09-13T17:23:03.701Z,95.00
2018-09-13T17:25:45.404Z,95.30
2018-09-13T17:28:27.062Z,95.50
2018-09-13T17:31:09.225Z,95.60
2018-09-13T17:33:51.067Z,95.60
2018-09-13T17:36:32.645Z,95.70
2018-09-13T17:39:14.576Z,95.80
2018-09-13T17:41:55.990Z,96.00
2018-09-13T17:44:37.036Z,96.10
2018-09-13T17:47:25.808Z,96.00
2018-09-13T17:50:07.373Z,96.00
2018-09-13T17:52:49.616Z,96.10
2018-09-13T17:55:33.001Z,96.20
2018-09-13T17:58:15.654Z,96.20
2018-09-13T18:00:57.203Z,96.20
2018-09-13T18:03:40.136Z,96.10
2018-09-13T18:06:22.258Z,96.30
2018-09-13T18:09:03.451Z,96.20
2018-09-13T18:11:44.862Z,96.30
2018-09-13T18:14:26.518Z,96.40
2018-09-13T18:17:08.314Z,96.60
2018-09-13T18:19:50.066Z,96.60
2018-09-13T18:22:32.840Z,96.70
2018-09-13T18:25:14.618Z,96.80
2018-09-13T18:27:56.332Z,96.90
2018-09-13T18:30:37.955Z,96.90
2018-09-13T18:33:19.856Z,97.10
2018-09-13T18:36:01.812Z,97.20
2018-09-13T18:38:43.653Z,97.10
2018-09-13T18:41:25.833Z,97.20
2018-09-13T18:44:07.072Z,97.30
2018-09-13T18:46:48.937Z,97.30
2018-09-13T18:49:30.737Z,97.50
2018-09-13T18:52:12.264Z,97.60
2018-09-13T18:54:53.806Z,97.70
2018-09-13T18:57:35.646Z,97.90
2018-09-13T19:00:17.282Z,97.90
2018-09-13T19:02:58.623Z,98.00
2018-09-13T19:05:40.292Z,98.00
2018-09-13T19:08:21.278Z,98.00
2018-09-13T19:11:02.212Z,98.10
2018-09-13T19:13:43.817Z,98.10
2018-09-13T19:16:25.451Z,98.10
2018-09-13T19:19:07.279Z,98.50
2018-09-13T19:21:48.969Z,98.40
2018-09-13T19:24:30.793Z,98.50
2018-09-13T19:27:12.392Z,98.60
2018-09-13T19:29:54.198Z,98.60
2018-09-13T19:32:35.974Z,98.80
2018-09-13T19:35:17.539Z,98.70
2018-09-13T19:37:58.417Z,98.80
2018-09-13T19:40:42.537Z,98.70
2018-09-13T19:43:24.287Z,98.70
2018-09-13T19:46:05.075Z,98.70
2018-09-13T19:48:47.095Z,98.70
2018-09-13T19:51:28.701Z,98.70
2018-09-13T19:54:10.404Z,98.70
2018-09-13T19:56:52.227Z,98.70
2018-09-13T19:59:34.011Z,98.70
2018-09-13T20:02:15.813Z,98.80
2018-09-13T20:04:57.640Z,98.80
2018-09-13T20:07:40.333Z,98.90
2018-09-13T20:10:22.228Z,98.90
2018-09-13T20:13:03.967Z,98.90
2018-09-13T20:15:45.492Z,99.10
2018-09-13T20:18:26.276Z,99.10
2018-09-13T20:21:08.787Z,99.10
2018-09-13T20:23:53.797Z,99.20
2018-09-13T20:26:35.916Z,99.30
2018-09-13T20:29:17.003Z,99.50
2018-09-13T20:31:58.595Z,99.50
2018-09-13T20:34:40.135Z,99.60
2018-09-13T20:37:21.046Z,99.70
2018-09-13T20:40:23.879Z,99.80
2018-09-13T20:43:05.515Z,99.90
2018-09-13T20:45:47.399Z,99.90
2018-09-13T20:48:29.222Z,99.90
2018-09-13T20:51:10.863Z,99.90
2018-09-13T20:53:52.559Z,99.90
2018-09-13T20:56:33.451Z,99.90
2018-09-13T20:59:15.526Z,99.90
2018-09-13T21:01:57.473Z,99.90
2018-09-13T21:04:39.793Z,99.90
2018-09-13T21:07:22.381Z,99.90
2018-09-13T21:10:04.100Z,99.90
2018-09-13T21:12:47.076Z,99.90
2018-09-13T21:15:28.615Z,99.90
2018-09-13T21:18:10.318Z,99.90
2018-09-13T21:20:51.929Z,99.90
2018-09-13T21:23:34.769Z,99.90
2018-09-13T21:26:16.439Z,99.90
2018-09-13T21:28:58.127Z,99.90
2018-09-13T21:31:40.808Z,99.90
2018-09-13T21:34:21.934Z,99.90
2018-09-13T21:37:03.649Z,99.90
2018-09-13T21:39:45.871Z,99.90
2018-09-13T21:42:27.078Z,99.90
2018-09-13T21:45:09.217Z,99.90
2018-09-13T21:47:50.723Z,99.90
2018-09-13T21:50:32.204Z,99.90
2018-09-13T21:53:13.808Z,99.90
2018-09-13T21:55:54.924Z,99.90
2018-09-13T22:01:46.043Z,99.90
2018-09-13T22:04:27.603Z,99.90
2018-09-13T22:10:12.942Z,99.90
2018-09-13T22:12:53.978Z,99.90
2018-09-13T22:15:34.702Z,99.90
2018-09-13T22:18:15.672Z,99.90
2018-09-13T22:20:56.688Z,99.90
2018-09-13T22:23:38.138Z,99.90
2018-09-13T22:26:20.652Z,99.90
2018-09-13T22:29:03.399Z,99.90
2018-09-13T22:31:45.098Z,99.90
2018-09-13T22:34:32.973Z,99.90
2018-09-13T22:37:13.679Z,99.90
2018-09-13T22:39:54.659Z,99.90
2018-09-13T22:42:36.848Z,99.90
2018-09-13T22:45:18.033Z,99.90
2018-09-13T22:48:16.485Z,99.90
2018-09-13T22:50:58.094Z,99.90
2018-09-13T22:53:38.897Z,99.90
2018-09-13T22:56:21.585Z,99.90
2018-09-13T22:59:03.183Z,99.90
2018-09-13T23:01:44.856Z,99.90
2018-09-13T23:04:25.541Z,99.90
2018-09-13T23:07:07.134Z,99.90
2018-09-13T23:09:47.967Z,99.90
2018-09-13T23:12:29.596Z,99.90
2018-09-13T23:15:11.160Z,99.90
2018-09-13T23:18:07.017Z,99.90
2018-09-13T23:20:48.558Z,99.90
2018-09-13T23:23:30.082Z,99.90
2018-09-13T23:26:11.715Z,99.90
2018-09-13T23:28:53.766Z,99.90
2018-09-13T23:31:35.007Z,99.90
2018-09-13T23:34:15.681Z,99.90
2018-09-13T23:36:57.148Z,99.90
2018-09-13T23:39:38.028Z,99.90
2018-09-13T23:42:19.771Z,99.90
2018-09-13T23:45:00.647Z,99.90
2018-09-13T23:47:42.291Z,99.90
2018-09-13T23:50:23.286Z,99.90
2018-09-13T23:53:06.884Z,99.90
2018-09-13T23:55:48.382Z,99.90
2018-09-13T23:58:29.986Z,99.90
